Itau, Brazil
Current Conditions -  °F | °C
As of 7:15 AM on Wednesday 26 Nov 2014 (Local Time) from SBMS Reporting Station
Few Clouds Few Clouds  
Wind Chill: 84°   Ceiling: Unl
Heat Index: 87°   Visibility: 6mi
Dew Point: 68°   Wind: 12mph
Humidity: 58%   Direction: 110°ESE
Pressure: 29.91"   Gusts: NA
Location:  5.84°S, 37.99°W
Report Text: SBMS 261015Z 11010KT 9999 FEW025 29/20 Q1013
Loading
Personal Weather Stations






























Interactive Weather Map New forecast layout! Learn more

10-Day Weather Forecast

Advertisements
Track Severe Weather on mobile